Time;durP1;ratioP1;P1;durP2;ratioP2;P2;SDS_P1;SDS_P2;PMS_P1;PMS_P2;Temp;Humidity;BMP_temperature;BMP_pressure;BME280_temperature;BME280_humidity;BME280_pressure;Samples;Min_cycle;Max_cycle;Signal;HPM_P1;HPM_P2
2023/02/03 00:00:48;;;;;;;11.30;5.45;;;5.80;97.30;;;;;;5020768;28;20036;-67
2023/02/03 00:03:34;;;;;;;6.75;3.75;;;5.80;97.40;;;;;;5011358;28;20111;-67
2023/02/03 00:06:20;;;;;;;6.80;3.63;;;5.80;97.40;;;;;;5025702;28;20029;-67
2023/02/03 00:09:07;;;;;;;9.02;4.25;;;5.80;97.50;;;;;;5016153;28;20033;-67
2023/02/03 00:11:53;;;;;;;8.52;4.13;;;5.80;97.50;;;;;;5039479;28;20037;-66
2023/02/03 00:14:38;;;;;;;8.73;4.25;;;5.80;97.60;;;;;;5025151;28;20460;-66
2023/02/03 00:17:24;;;;;;;6.85;4.05;;;5.70;97.50;;;;;;5035893;28;20401;-67
2023/02/03 00:20:11;;;;;;;11.55;4.63;;;5.70;97.60;;;;;;5024712;28;20523;-66
2023/02/03 00:23:07;;;;;;;9.23;4.63;;;5.70;97.60;;;;;;5028802;28;20026;-66
2023/02/03 00:25:53;;;;;;;9.70;4.40;;;5.70;97.70;;;;;;5020021;28;20087;-66
2023/02/03 00:28:39;;;;;;;11.00;4.10;;;5.70;97.90;;;;;;5018765;28;20025;-66
2023/02/03 00:31:25;;;;;;;7.00;4.03;;;5.80;97.80;;;;;;5040335;28;21600;-66
2023/02/03 00:34:11;;;;;;;9.70;3.53;;;5.80;97.80;;;;;;5012247;28;20037;-65
2023/02/03 00:36:57;;;;;;;7.93;4.22;;;5.80;97.90;;;;;;5025709;28;20026;-66
2023/02/03 00:39:43;;;;;;;8.93;4.38;;;5.80;97.90;;;;;;5016685;28;20037;-65
2023/02/03 00:42:29;;;;;;;11.38;4.90;;;5.80;97.90;;;;;;5017407;28;20198;-66
2023/02/03 00:45:15;;;;;;;9.85;3.50;;;5.80;98.00;;;;;;5013690;28;20049;-65
2023/02/03 00:48:01;;;;;;;8.18;4.45;;;5.80;98.00;;;;;;5018551;28;20014;-65
2023/02/03 00:50:47;;;;;;;9.68;3.88;;;5.80;98.10;;;;;;5021908;28;20073;-65
2023/02/03 00:53:33;;;;;;;7.05;4.20;;;5.80;98.20;;;;;;5033390;28;20053;-64
2023/02/03 00:56:19;;;;;;;6.20;4.00;;;5.90;98.30;;;;;;5014277;28;20140;-64
2023/02/03 00:59:05;;;;;;;9.48;3.90;;;5.90;98.40;;;;;;5001630;28;20085;-65
2023/02/03 01:01:51;;;;;;;12.10;5.60;;;5.90;98.50;;;;;;4996787;28;20045;-64
2023/02/03 01:04:37;;;;;;;9.02;3.90;;;5.90;98.60;;;;;;4992352;28;20410;-64
2023/02/03 01:07:23;;;;;;;12.27;4.45;;;5.90;98.70;;;;;;5024833;28;20104;-64
2023/02/03 01:10:10;;;;;;;13.77;3.90;;;6.00;98.80;;;;;;5005265;28;20038;-64
2023/02/03 01:12:56;;;;;;;11.10;3.95;;;6.00;98.80;;;;;;4996203;28;20603;-64
2023/02/03 01:15:46;;;;;;;9.32;4.05;;;6.00;98.90;;;;;;5005552;28;20025;-63
2023/02/03 01:18:32;;;;;;;6.38;3.53;;;6.00;98.90;;;;;;5013065;28;20018;-64
2023/02/03 01:21:21;;;;;;;9.02;4.25;;;6.10;99.00;;;;;;5007560;28;20038;-64
2023/02/03 01:24:08;;;;;;;10.02;3.85;;;6.00;99.00;;;;;;5003242;28;20382;-63
2023/02/03 01:26:54;;;;;;;9.35;3.90;;;6.00;99.10;;;;;;4996000;28;20572;-63
2023/02/03 01:29:40;;;;;;;10.93;4.28;;;6.00;99.20;;;;;;5001293;28;20552;-63
2023/02/03 01:32:26;;;;;;;13.93;4.38;;;6.00;99.30;;;;;;4994420;28;20452;-63
2023/02/03 01:35:12;;;;;;;9.95;4.93;;;6.00;99.50;;;;;;4994680;28;20062;-63
2023/02/03 01:37:58;;;;;;;8.95;4.65;;;6.00;99.40;;;;;;5004081;28;20030;-63
2023/02/03 01:40:44;;;;;;;8.13;4.60;;;6.00;99.60;;;;;;4989365;28;20069;-63
2023/02/03 01:43:40;;;;;;;11.15;5.07;;;5.90;99.50;;;;;;4994582;28;20105;-64
2023/02/03 01:46:26;;;;;;;10.50;4.45;;;6.00;99.60;;;;;;5002295;28;20069;-63
2023/02/03 01:49:21;;;;;;;8.43;4.35;;;5.90;99.60;;;;;;4996745;28;20094;-63
2023/02/03 01:52:07;;;;;;;6.35;4.38;;;5.90;99.70;;;;;;4999323;28;20089;-63
2023/02/03 01:54:56;;;;;;;8.10;4.50;;;5.90;99.70;;;;;;4987216;28;20489;-63
2023/02/03 01:57:50;;;;;;;10.60;5.15;;;6.00;99.90;;;;;;5005002;28;20105;-64
2023/02/03 02:00:36;;;;;;;8.30;4.53;;;5.90;99.80;;;;;;4999944;28;20444;-64
2023/02/03 02:03:35;;;;;;;7.50;4.60;;;5.90;99.90;;;;;;4992818;28;20099;-64
2023/02/03 02:06:21;;;;;;;11.70;4.55;;;5.80;99.90;;;;;;4998204;28;20031;-64
2023/02/03 02:09:08;;;;;;;9.25;4.60;;;5.80;99.90;;;;;;4999422;28;20037;-64
2023/02/03 02:11:53;;;;;;;8.77;4.65;;;5.80;99.90;;;;;;5014984;28;20034;-64
2023/02/03 02:14:41;;;;;;;7.53;3.67;;;5.80;99.90;;;;;;4999508;28;20116;-63
2023/02/03 02:17:29;;;;;;;6.43;4.20;;;5.80;99.90;;;;;;5008135;28;20021;-64
2023/02/03 02:20:15;;;;;;;10.90;4.85;;;5.80;99.90;;;;;;5003699;28;20041;-64
2023/02/03 02:23:58;;;;;;;10.13;4.78;;;5.80;99.90;;;;;;5013597;28;20033;-63
2023/02/03 02:27:11;;;;;;;5.65;3.63;;;5.80;99.90;;;;;;4928230;29;20027;-63
2023/02/03 02:30:11;;;;;;;6.80;4.20;;;5.70;99.90;;;;;;4931985;28;20040;-64
2023/02/03 02:32:57;;;;;;;6.18;4.15;;;5.70;99.90;;;;;;5005025;28;20101;-63
2023/02/03 02:35:55;;;;;;;8.40;4.78;;;5.70;99.90;;;;;;4993831;28;20053;-63
2023/02/03 02:38:47;;;;;;;5.95;4.20;;;5.70;99.90;;;;;;5005981;28;20041;-63
2023/02/03 02:41:36;;;;;;;5.78;4.05;;;5.70;99.90;;;;;;4994177;28;20510;-63
2023/02/03 02:44:29;;;;;;;6.72;4.40;;;5.60;99.90;;;;;;4998889;28;20069;-62
2023/02/03 02:47:18;;;;;;;5.35;3.47;;;5.60;99.90;;;;;;4995343;28;20041;-63
2023/02/03 02:50:17;;;;;;;6.55;4.45;;;5.60;99.90;;;;;;5017772;28;20113;-63
2023/02/03 02:53:04;;;;;;;7.25;4.03;;;5.60;99.90;;;;;;4984733;28;20265;-63
2023/02/03 02:55:52;;;;;;;4.80;3.72;;;5.60;99.90;;;;;;5001735;28;20054;-63
2023/02/03 02:58:41;;;;;;;6.55;3.38;;;5.50;99.90;;;;;;5016162;28;20385;-63
2023/02/03 03:01:27;;;;;;;6.90;4.00;;;5.50;99.90;;;;;;5006565;28;20037;-63
2023/02/03 03:04:16;;;;;;;4.15;3.25;;;5.50;99.90;;;;;;5009299;28;20029;-63
2023/02/03 03:07:12;;;;;;;4.88;2.90;;;5.50;99.90;;;;;;5018882;28;20108;-63
2023/02/03 03:10:06;;;;;;;3.70;3.03;;;5.50;99.90;;;;;;5009681;28;20028;-63
2023/02/03 03:13:00;;;;;;;6.32;3.10;;;5.50;99.90;;;;;;5012884;28;20113;-63
2023/02/03 03:15:47;;;;;;;4.95;3.03;;;5.40;99.90;;;;;;5016784;28;20025;-63
2023/02/03 03:18:46;;;;;;;3.50;2.63;;;5.40;99.90;;;;;;5026956;28;20037;-63
2023/02/03 03:21:39;;;;;;;3.83;2.30;;;5.40;99.90;;;;;;5018684;28;20132;-63
2023/02/03 03:24:33;;;;;;;3.78;2.45;;;5.40;99.90;;;;;;5022018;28;20113;-63
2023/02/03 03:27:25;;;;;;;3.78;2.35;;;5.40;99.90;;;;;;5012413;28;20164;-63
2023/02/03 03:30:16;;;;;;;2.95;2.22;;;5.40;99.90;;;;;;5023998;28;20026;-63
2023/02/03 03:33:04;;;;;;;3.45;2.28;;;5.40;99.90;;;;;;5008896;28;20049;-63
2023/02/03 03:35:55;;;;;;;3.45;2.50;;;5.40;99.90;;;;;;5025382;28;20184;-64
2023/02/03 03:39:08;;;;;;;3.17;2.25;;;5.40;99.90;;;;;;5020367;28;20065;-63
2023/02/03 03:42:09;;;;;;;2.67;2.00;;;5.40;99.90;;;;;;5022549;28;20516;-63
2023/02/03 03:45:07;;;;;;;3.38;2.03;;;5.40;99.90;;;;;;5022885;28;20029;-63
2023/02/03 03:48:03;;;;;;;4.03;2.00;;;5.40;99.90;;;;;;5018688;28;20025;-64
2023/02/03 03:50:57;;;;;;;3.47;2.10;;;5.40;99.90;;;;;;5014376;28;20494;-63
2023/02/03 03:53:45;;;;;;;1.90;1.70;;;5.50;99.90;;;;;;5023246;28;20025;-63
2023/02/03 03:56:40;;;;;;;2.70;2.00;;;5.50;99.90;;;;;;5013642;28;20496;-63
2023/02/03 03:59:31;;;;;;;3.87;1.77;;;5.50;99.90;;;;;;5029644;28;20350;-63
2023/02/03 04:02:19;;;;;;;2.47;1.73;;;5.50;99.90;;;;;;5019207;28;20288;-63
2023/02/03 04:05:07;;;;;;;2.20;1.58;;;5.50;99.90;;;;;;5043546;28;20112;-63
2023/02/03 04:07:53;;;;;;;2.10;1.75;;;5.60;99.90;;;;;;5019830;28;20057;-63
2023/02/03 04:10:41;;;;;;;2.72;1.75;;;5.50;99.90;;;;;;5018408;28;20109;-63
2023/02/03 04:13:27;;;;;;;3.33;2.15;;;5.60;99.90;;;;;;5035586;28;20501;-63
2023/02/03 04:16:13;;;;;;;2.70;1.95;;;5.60;99.90;;;;;;5030608;28;20040;-63
2023/02/03 04:18:59;;;;;;;2.70;2.05;;;5.70;99.90;;;;;;5029857;28;20092;-63
2023/02/03 04:21:45;;;;;;;4.57;2.47;;;5.70;99.90;;;;;;5015394;28;20034;-63
2023/02/03 04:24:31;;;;;;;3.25;2.10;;;5.80;99.90;;;;;;5022239;28;20030;-63
2023/02/03 04:27:17;;;;;;;2.75;2.17;;;5.80;99.90;;;;;;5022022;28;20029;-64
2023/02/03 04:30:04;;;;;;;3.97;2.15;;;5.80;99.90;;;;;;5023178;28;20405;-63
2023/02/03 04:32:50;;;;;;;2.90;2.30;;;5.90;99.90;;;;;;5020296;28;20047;-64
2023/02/03 04:35:36;;;;;;;3.60;2.47;;;5.90;99.90;;;;;;5032818;28;20029;-63
2023/02/03 04:38:22;;;;;;;4.15;2.72;;;5.80;99.90;;;;;;5030088;28;20028;-63
2023/02/03 04:41:08;;;;;;;3.70;2.70;;;6.00;99.90;;;;;;5018661;28;20037;-63
2023/02/03 04:43:54;;;;;;;3.17;2.58;;;6.10;99.90;;;;;;5021178;28;20017;-63
2023/02/03 04:46:40;;;;;;;3.45;2.63;;;6.10;99.90;;;;;;5031178;28;20043;-63
2023/02/03 04:49:26;;;;;;;3.95;3.13;;;6.20;99.90;;;;;;5017451;28;20500;-64
2023/02/03 04:52:12;;;;;;;3.95;3.13;;;6.20;99.90;;;;;;5024066;28;20435;-64
2023/02/03 04:54:58;;;;;;;4.55;3.45;;;6.30;99.90;;;;;;5014747;28;20108;-64
2023/02/03 04:57:44;;;;;;;4.15;3.45;;;6.30;99.90;;;;;;5027539;28;20037;-63
2023/02/03 05:00:30;;;;;;;5.10;3.80;;;6.40;99.90;;;;;;5029131;28;20045;-63
2023/02/03 05:03:16;;;;;;;6.10;4.53;;;6.50;99.90;;;;;;5016565;28;20032;-63
2023/02/03 05:06:02;;;;;;;6.20;4.45;;;6.50;99.90;;;;;;5029250;28;20037;-63
2023/02/03 05:08:48;;;;;;;6.25;4.63;;;6.60;99.90;;;;;;5027562;28;20021;-64
2023/02/03 05:11:34;;;;;;;6.55;5.53;;;6.60;99.90;;;;;;5019330;28;20054;-64
2023/02/03 05:14:20;;;;;;;6.22;5.10;;;6.60;99.90;;;;;;5014195;28;20033;-64
2023/02/03 05:17:06;;;;;;;6.53;5.32;;;6.70;99.90;;;;;;5024399;28;20531;-64
2023/02/03 05:19:52;;;;;;;8.32;5.63;;;6.80;99.90;;;;;;5010229;28;20041;-65
2023/02/03 05:22:38;;;;;;;7.00;5.93;;;6.80;99.90;;;;;;5023939;28;20033;-64
2023/02/03 05:25:24;;;;;;;8.80;6.00;;;6.90;99.90;;;;;;5030190;28;20037;-65
2023/02/03 05:28:10;;;;;;;7.93;6.22;;;7.00;99.90;;;;;;5019745;28;20676;-63
2023/02/03 05:31:00;;;;;;;11.50;6.88;;;7.00;99.90;;;;;;5017241;28;20029;-64
2023/02/03 05:33:46;;;;;;;9.15;6.72;;;7.10;99.90;;;;;;5026779;28;20300;-64
2023/02/03 05:36:32;;;;;;;10.18;7.65;;;7.10;99.90;;;;;;5018631;28;20033;-63
2023/02/03 05:39:18;;;;;;;10.43;7.50;;;7.20;99.90;;;;;;5023632;28;20180;-63
2023/02/03 05:42:04;;;;;;;11.65;8.18;;;7.30;99.90;;;;;;5026793;28;20099;-63
2023/02/03 05:44:50;;;;;;;11.38;8.45;;;7.30;99.90;;;;;;5023804;28;20021;-63
2023/02/03 05:47:36;;;;;;;11.35;8.20;;;7.40;99.90;;;;;;5012860;28;20433;-64
2023/02/03 05:50:22;;;;;;;13.10;9.00;;;7.40;99.90;;;;;;5032589;28;20025;-63
2023/02/03 05:53:08;;;;;;;14.60;9.50;;;7.50;99.90;;;;;;5031543;28;20025;-63
2023/02/03 05:55:54;;;;;;;15.23;10.13;;;7.50;99.90;;;;;;5029416;28;20048;-64
2023/02/03 05:58:40;;;;;;;17.67;10.73;;;7.60;99.90;;;;;;5024023;28;20034;-63
2023/02/03 06:01:26;;;;;;;12.48;9.82;;;7.70;99.90;;;;;;5017532;28;20080;-64
2023/02/03 06:04:12;;;;;;;13.85;10.45;;;7.70;99.90;;;;;;5022152;28;20029;-63
2023/02/03 06:06:57;;;;;;;14.35;11.40;;;7.80;99.90;;;;;;5010125;28;20037;-63
2023/02/03 06:09:44;;;;;;;15.20;10.75;;;7.90;99.90;;;;;;5015654;28;20045;-64
2023/02/03 06:12:29;;;;;;;13.88;10.07;;;7.90;99.90;;;;;;5017566;28;20465;-63
2023/02/03 06:15:16;;;;;;;16.70;10.77;;;7.90;99.90;;;;;;5032156;28;20037;-63
2023/02/03 06:18:02;;;;;;;14.35;11.60;;;8.10;99.90;;;;;;5021786;28;20022;-63
2023/02/03 06:20:49;;;;;;;14.05;10.52;;;8.10;99.90;;;;;;5022094;28;20281;-63
2023/02/03 06:23:35;;;;;;;17.27;11.73;;;8.20;99.90;;;;;;5019640;28;20105;-64
2023/02/03 06:26:21;;;;;;;15.48;10.25;;;8.30;99.90;;;;;;5006039;28;20034;-64
2023/02/03 06:29:07;;;;;;;14.48;10.55;;;8.30;99.90;;;;;;5004120;28;20025;-63
2023/02/03 06:31:53;;;;;;;18.13;10.77;;;8.40;99.90;;;;;;5010500;28;20036;-64
2023/02/03 06:34:39;;;;;;;15.77;11.02;;;8.40;99.90;;;;;;5017510;28;20109;-64
2023/02/03 06:37:25;;;;;;;13.57;10.10;;;8.40;99.90;;;;;;5017063;28;20508;-64
2023/02/03 06:40:11;;;;;;;14.55;10.10;;;8.50;99.90;;;;;;5014652;28;20041;-65
2023/02/03 06:42:57;;;;;;;13.20;10.55;;;8.50;99.90;;;;;;5031374;28;20033;-66
2023/02/03 06:45:46;;;;;;;16.88;10.85;;;8.60;99.90;;;;;;5010025;28;20061;-66
2023/02/03 06:48:32;;;;;;;12.77;10.15;;;8.70;99.90;;;;;;5013439;28;20030;-67
2023/02/03 06:51:18;;;;;;;11.82;9.73;;;8.70;99.90;;;;;;5027719;28;20025;-66
2023/02/03 06:54:04;;;;;;;14.88;10.57;;;8.70;99.90;;;;;;5022091;28;20165;-67
2023/02/03 06:56:50;;;;;;;16.77;11.25;;;8.80;99.90;;;;;;5034656;28;20053;-66
2023/02/03 06:59:36;;;;;;;13.52;10.05;;;8.80;99.90;;;;;;5011750;28;20026;-64
2023/02/03 07:02:22;;;;;;;15.93;9.18;;;8.80;99.90;;;;;;5023194;28;20030;-66
2023/02/03 07:05:08;;;;;;;15.30;9.70;;;8.80;99.90;;;;;;5017631;28;20037;-65
2023/02/03 07:07:54;;;;;;;12.60;8.93;;;8.80;99.90;;;;;;5011584;28;20171;-66
2023/02/03 07:10:40;;;;;;;13.10;9.07;;;8.90;99.90;;;;;;5010695;28;20085;-66
2023/02/03 07:13:26;;;;;;;16.02;9.40;;;8.90;99.90;;;;;;5018310;28;20112;-65
2023/02/03 07:16:13;;;;;;;12.20;9.15;;;9.00;99.90;;;;;;5018119;28;20047;-68
2023/02/03 07:18:59;;;;;;;12.13;8.82;;;9.00;99.90;;;;;;5011913;28;20117;-66
2023/02/03 07:21:45;;;;;;;12.73;8.90;;;9.00;99.90;;;;;;5024760;28;20025;-66
2023/02/03 07:24:31;;;;;;;14.93;10.25;;;9.00;99.90;;;;;;5020869;28;20034;-66
2023/02/03 07:27:18;;;;;;;12.88;9.68;;;9.00;99.90;;;;;;5025175;28;20437;-65
2023/02/03 07:30:04;;;;;;;14.07;9.05;;;9.00;99.90;;;;;;5017642;28;20091;-67
2023/02/03 07:32:51;;;;;;;11.30;8.57;;;9.00;99.90;;;;;;5018008;28;20050;-63
2023/02/03 07:35:37;;;;;;;12.25;9.00;;;9.00;99.90;;;;;;5017613;28;20120;-62
2023/02/03 07:38:25;;;;;;;11.45;8.23;;;9.00;99.90;;;;;;5025168;28;20068;-63
2023/02/03 07:41:11;;;;;;;11.93;8.27;;;9.10;99.90;;;;;;5014675;28;20042;-62
2023/02/03 07:43:57;;;;;;;12.23;8.63;;;9.10;99.90;;;;;;5024059;28;20393;-62
2023/02/03 07:46:44;;;;;;;9.77;8.13;;;9.10;99.90;;;;;;5004850;28;20105;-63
2023/02/03 07:49:30;;;;;;;10.77;8.00;;;9.10;99.90;;;;;;5025610;28;20104;-63
2023/02/03 07:52:16;;;;;;;12.88;8.18;;;9.10;99.90;;;;;;5025082;28;20030;-63
2023/02/03 07:55:02;;;;;;;10.98;8.27;;;9.20;99.90;;;;;;5024931;28;20022;-64
2023/02/03 07:57:48;;;;;;;10.98;7.30;;;9.20;99.90;;;;;;5010816;28;20096;-64
2023/02/03 08:00:35;;;;;;;10.55;7.72;;;9.20;99.90;;;;;;5009894;28;20132;-65
2023/02/03 08:03:20;;;;;;;13.48;7.85;;;9.30;99.90;;;;;;5021537;28;20113;-64
2023/02/03 08:06:07;;;;;;;10.82;7.20;;;9.20;99.90;;;;;;5015123;28;20044;-63
2023/02/03 08:08:53;;;;;;;11.25;7.57;;;9.30;99.90;;;;;;5024032;28;20033;-63
2023/02/03 08:11:39;;;;;;;8.90;6.38;;;9.30;99.90;;;;;;5004274;28;20111;-63
2023/02/03 08:14:25;;;;;;;9.10;6.60;;;9.30;99.90;;;;;;5019938;28;20018;-62
2023/02/03 08:17:11;;;;;;;7.75;5.65;;;9.30;99.90;;;;;;5019801;28;20046;-63
2023/02/03 08:19:57;;;;;;;9.00;6.35;;;9.30;99.90;;;;;;5019002;28;20042;-63
2023/02/03 08:22:43;;;;;;;7.22;5.35;;;9.30;99.90;;;;;;5014885;28;20473;-63
2023/02/03 08:25:29;;;;;;;8.23;5.30;;;9.30;99.90;;;;;;5020974;28;20389;-63
2023/02/03 08:28:15;;;;;;;7.78;6.10;;;9.30;99.90;;;;;;5017269;28;20386;-63
2023/02/03 08:31:07;;;;;;;8.63;6.15;;;9.40;99.90;;;;;;5019609;28;20033;-64
2023/02/03 08:33:53;;;;;;;6.95;5.18;;;9.40;99.90;;;;;;5024625;28;20030;-64
2023/02/03 08:36:39;;;;;;;6.35;4.75;;;9.40;99.90;;;;;;5011420;28;20092;-63
2023/02/03 08:39:25;;;;;;;6.82;5.10;;;9.40;99.90;;;;;;5028757;28;20401;-64
2023/02/03 08:42:11;;;;;;;7.60;4.78;;;9.40;99.90;;;;;;5020763;28;20124;-64
2023/02/03 08:44:57;;;;;;;9.15;4.97;;;9.40;99.90;;;;;;5023181;28;20032;-63
2023/02/03 08:47:43;;;;;;;6.32;4.90;;;9.40;99.90;;;;;;5021418;28;20477;-63
2023/02/03 08:50:29;;;;;;;7.50;4.95;;;9.40;99.90;;;;;;5032472;28;20402;-64
2023/02/03 08:53:15;;;;;;;9.50;5.00;;;9.50;99.90;;;;;;5026475;28;20034;-63
2023/02/03 08:56:10;;;;;;;7.07;4.65;;;9.40;99.90;;;;;;5025504;28;20033;-63
2023/02/03 08:58:56;;;;;;;6.20;4.50;;;9.50;99.90;;;;;;5028577;28;20033;-64
2023/02/03 09:01:47;;;;;;;6.47;4.50;;;9.50;99.90;;;;;;5010787;28;20328;-64
2023/02/03 09:04:33;;;;;;;5.15;4.22;;;9.50;99.90;;;;;;5021929;28;20033;-62
2023/02/03 09:07:19;;;;;;;5.32;4.10;;;9.60;99.90;;;;;;5012536;28;20049;-64
2023/02/03 09:10:05;;;;;;;4.97;4.13;;;9.50;99.90;;;;;;5016162;28;20155;-63
2023/02/03 09:12:51;;;;;;;5.00;3.78;;;9.60;99.90;;;;;;5014052;28;20053;-64
2023/02/03 09:15:37;;;;;;;6.60;3.30;;;9.60;99.90;;;;;;5011784;28;20040;-63
2023/02/03 09:18:24;;;;;;;6.43;3.53;;;9.60;99.90;;;;;;5017361;28;20025;-63
2023/02/03 09:21:11;;;;;;;5.38;3.55;;;9.60;99.90;;;;;;5016977;28;20493;-63
2023/02/03 09:24:00;;;;;;;4.00;3.45;;;9.60;99.90;;;;;;5018900;28;20036;-63
2023/02/03 09:26:46;;;;;;;4.57;3.22;;;9.60;99.90;;;;;;5026168;28;20033;-62
2023/02/03 09:29:32;;;;;;;4.55;3.25;;;9.60;99.90;;;;;;5020654;28;20080;-63
2023/02/03 09:32:18;;;;;;;5.63;3.50;;;9.60;99.90;;;;;;5031448;28;20120;-63
2023/02/03 09:35:04;;;;;;;4.60;3.70;;;9.60;99.90;;;;;;5007248;28;20041;-63
2023/02/03 09:37:50;;;;;;;5.22;3.40;;;9.60;99.90;;;;;;5018196;28;20091;-62
2023/02/03 09:40:38;;;;;;;6.45;3.70;;;9.70;99.90;;;;;;5021033;28;20034;-62
2023/02/03 09:43:33;;;;;;;3.90;3.00;;;9.70;99.90;;;;;;5023596;28;20033;-62
2023/02/03 09:46:22;;;;;;;5.28;2.83;;;9.70;99.90;;;;;;5006928;28;20033;-63
2023/02/03 09:49:21;;;;;;;4.18;3.03;;;9.70;99.90;;;;;;5012671;28;20037;-63
2023/02/03 09:52:16;;;;;;;5.25;3.22;;;9.60;99.90;;;;;;5017453;28;20124;-63
2023/02/03 09:55:21;;;;;;;;;;;9.60;99.90;;;;;;5002241;28;20029;-63
2023/02/03 09:58:17;;;;;;;6.22;3.33;;;9.70;99.90;;;;;;5018757;28;19916;-63
2023/02/03 10:01:12;;;;;;;3.92;3.05;;;9.70;99.90;;;;;;5028865;28;20132;-63
2023/02/03 10:04:17;;;;;;;4.47;2.97;;;9.70;99.90;;;;;;5021492;28;20022;-62
2023/02/03 10:07:24;;;;;;;5.15;3.35;;;9.70;99.90;;;;;;5012865;28;20042;-62
2023/02/03 10:10:29;;;;;;;7.07;3.15;;;9.70;99.90;;;;;;5011122;28;20137;-63
2023/02/03 10:13:26;;;;;;;4.18;3.35;;;9.70;99.90;;;;;;5014696;28;20397;-63
2023/02/03 10:16:32;;;;;;;3.97;2.65;;;9.70;99.90;;;;;;4994159;28;20072;-63
2023/02/03 10:19:24;;;;;;;4.03;2.65;;;9.80;99.90;;;;;;5015505;28;20397;-63
2023/02/03 10:22:16;;;;;;;4.57;2.90;;;9.80;99.90;;;;;;5012061;28;20512;-63
2023/02/03 10:25:27;;;;;;;6.30;3.53;;;9.90;99.90;;;;;;5015557;28;20025;-63
2023/02/03 10:28:19;;;;;;;4.78;3.17;;;9.90;99.90;;;;;;5022447;28;20056;-63
2023/02/03 10:31:17;;;;;;;5.47;3.58;;;9.90;99.90;;;;;;5020403;28;20477;-63
2023/02/03 10:34:11;;;;;;;4.00;3.13;;;9.90;99.90;;;;;;5017105;28;20087;-63
2023/02/03 10:37:16;;;;;;;6.03;3.92;;;9.90;99.90;;;;;;5012133;28;20058;-63
2023/02/03 10:40:03;;;;;;;4.88;3.20;;;10.00;99.90;;;;;;5013831;28;20044;-64
2023/02/03 10:43:51;;;;;;;5.47;3.03;;;9.90;99.90;;;;;;5017568;28;20022;-63
2023/02/03 10:46:05;;;;;;;;;;;10.00;99.90;;;;;;5016350;28;20417;-65
2023/02/03 10:48:51;;;;;;;3.08;2.00;;;9.90;99.90;;;;;;5017335;28;21617;-63
2023/02/03 10:51:44;;;;;;;3.28;2.20;;;9.80;99.90;;;;;;5009607;28;20492;-62
2023/02/03 10:54:34;;;;;;;4.85;2.35;;;9.70;99.90;;;;;;5010814;28;20038;-63
2023/02/03 10:57:21;;;;;;;4.53;2.50;;;9.70;99.90;;;;;;5023882;28;20054;-63
2023/02/03 11:00:30;;;;;;;3.20;1.90;;;9.60;99.90;;;;;;5020679;28;20033;-63
2023/02/03 11:03:26;;;;;;;4.20;1.90;;;9.60;99.90;;;;;;5019512;28;20038;-64
2023/02/03 11:06:15;;;;;;;7.18;2.55;;;9.50;99.90;;;;;;5022265;28;20026;-63
2023/02/03 11:09:01;;;;;;;6.50;2.35;;;9.50;99.90;;;;;;5030069;28;20034;-64
2023/02/03 11:12:00;;;;;;;7.35;2.22;;;9.50;99.90;;;;;;5024526;28;20048;-64
2023/02/03 11:14:49;;;;;;;5.10;1.73;;;9.50;99.90;;;;;;5000389;28;20120;-63
2023/02/03 11:17:35;;;;;;;4.93;1.85;;;9.40;99.90;;;;;;5024518;28;20030;-63
2023/02/03 11:20:25;;;;;;;5.60;2.25;;;9.40;99.90;;;;;;5015589;28;20500;-64
2023/02/03 11:23:11;;;;;;;6.30;2.58;;;9.40;99.90;;;;;;5024771;28;20105;-64
2023/02/03 11:25:57;;;;;;;7.60;2.38;;;9.40;99.90;;;;;;5021666;28;20040;-64
2023/02/03 11:28:46;;;;;;;7.35;2.92;;;9.40;99.90;;;;;;5015748;28;20030;-64
2023/02/03 11:31:34;;;;;;;13.60;3.20;;;9.50;99.90;;;;;;5019465;28;20018;-64
2023/02/03 11:34:30;;;;;;;12.02;3.42;;;9.50;99.90;;;;;;5019945;28;20041;-64
2023/02/03 11:37:33;;;;;;;10.73;2.75;;;9.50;99.90;;;;;;5017364;28;20083;-64
2023/02/03 11:40:32;;;;;;;9.98;2.78;;;9.40;99.90;;;;;;5027696;28;20044;-65
2023/02/03 11:43:21;;;;;;;17.60;4.85;;;9.40;99.90;;;;;;5019286;28;20018;-64
2023/02/03 11:46:08;;;;;;;14.13;4.18;;;9.50;99.90;;;;;;5013453;28;20393;-65
2023/02/03 11:49:29;;;;;;;12.20;3.15;;;9.40;99.90;;;;;;5019287;28;20030;-64
2023/02/03 11:52:59;;;;;;;10.80;3.72;;;9.50;99.90;;;;;;4989511;28;20034;-66
2023/02/03 11:56:06;;;;;;;11.13;3.53;;;9.50;99.90;;;;;;5017489;28;20064;-64
2023/02/03 11:59:06;;;;;;;16.77;3.85;;;9.50;99.90;;;;;;5005931;28;20473;-64
2023/02/03 12:02:10;;;;;;;15.43;5.20;;;9.60;99.90;;;;;;5024825;28;20030;-64
2023/02/03 12:05:17;;;;;;;15.95;4.30;;;9.60;99.90;;;;;;5019506;28;20152;-66
2023/02/03 12:08:11;;;;;;;12.38;4.15;;;9.70;99.90;;;;;;5018358;28;20057;-65
2023/02/03 12:11:34;;;;;;;11.45;4.43;;;9.60;99.90;;;;;;5010942;28;20025;-64
2023/02/03 12:14:26;;;;;;;16.52;4.20;;;9.60;99.90;;;;;;5010568;28;20079;-64
2023/02/03 12:17:24;;;;;;;11.50;4.65;;;9.60;99.90;;;;;;5015581;28;20117;-63
2023/02/03 12:20:18;;;;;;;16.35;4.35;;;9.60;99.90;;;;;;5021586;28;20037;-64
2023/02/03 12:23:23;;;;;;;13.87;5.33;;;9.70;99.90;;;;;;5025472;28;20027;-64
2023/02/03 12:26:19;;;;;;;15.13;3.55;;;9.80;99.90;;;;;;5017969;28;20025;-64
2023/02/03 12:29:23;;;;;;;17.58;4.28;;;9.90;99.90;;;;;;5015908;28;20030;-63
2023/02/03 12:32:09;;;;;;;13.45;3.97;;;10.00;99.90;;;;;;5024365;28;20095;-64
2023/02/03 12:35:21;;;;;;;25.17;5.20;;;10.00;99.90;;;;;;5015744;28;20025;-63
2023/02/03 12:38:17;;;;;;;17.25;4.47;;;10.10;99.90;;;;;;5025248;28;20109;-64
2023/02/03 12:41:14;;;;;;;17.75;5.45;;;10.20;99.90;;;;;;5012016;28;20041;-63
2023/02/03 12:44:07;;;;;;;18.70;4.82;;;10.20;99.80;;;;;;5025300;28;20044;-64
2023/02/03 12:47:02;;;;;;;18.92;5.35;;;10.30;99.50;;;;;;5022472;28;20021;-64
2023/02/03 12:50:17;;;;;;;;;;;10.30;99.40;;;;;;5014430;28;20026;-64
2023/02/03 12:53:14;;;;;;;20.52;5.53;;;10.30;97.90;;;;;;5018954;28;19963;-64
2023/02/03 12:56:04;;;;;;;12.82;3.90;;;10.30;98.70;;;;;;5024472;28;20044;-64
2023/02/03 12:59:01;;;;;;;15.27;5.07;;;10.30;98.10;;;;;;5012261;28;20049;-64
2023/02/03 13:01:53;;;;;;;18.83;4.80;;;10.20;97.80;;;;;;5013488;28;20030;-64
2023/02/03 13:04:53;;;;;;;17.33;4.45;;;10.00;98.20;;;;;;5013338;28;20053;-64
2023/02/03 13:07:48;;;;;;;6.70;2.80;;;9.80;98.90;;;;;;5020350;28;20396;-63
2023/02/03 13:10:47;;;;;;;6.90;2.90;;;9.20;99.40;;;;;;5024820;28;20034;-63
2023/02/03 13:13:41;;;;;;;6.97;2.38;;;8.70;99.90;;;;;;5022783;28;20112;-64
2023/02/03 13:16:36;;;;;;;8.23;2.47;;;8.30;99.90;;;;;;5013419;28;20083;-64
2023/02/03 13:19:29;;;;;;;11.05;3.67;;;8.20;99.90;;;;;;5019366;28;20453;-64
2023/02/03 13:22:16;;;;;;;7.93;3.45;;;8.10;99.90;;;;;;5018461;28;20064;-64
2023/02/03 13:25:14;;;;;;;10.85;3.30;;;8.00;99.90;;;;;;5025829;28;20066;-64
2023/02/03 13:28:48;;;;;;;8.38;2.83;;;8.00;99.90;;;;;;5013283;28;20029;-64
2023/02/03 13:31:34;;;;;;;10.70;3.72;;;7.80;99.90;;;;;;4987471;28;20125;-64
2023/02/03 13:34:37;;;;;;;15.95;3.83;;;7.70;99.90;;;;;;5016157;28;20048;-65
2023/02/03 13:37:35;;;;;;;11.75;3.60;;;7.50;99.90;;;;;;5024770;28;20034;-65
2023/02/03 13:40:36;;;;;;;12.40;3.40;;;7.50;99.90;;;;;;5014498;28;20509;-64
2023/02/03 13:43:50;;;;;;;16.05;4.40;;;7.50;99.90;;;;;;5012493;28;20037;-64
2023/02/03 13:46:36;;;;;;;15.35;4.45;;;7.50;99.90;;;;;;5006177;28;20022;-65
2023/02/03 13:49:32;;;;;;;8.50;3.22;;;7.60;99.90;;;;;;5030062;28;20029;-64
2023/02/03 13:52:53;;;;;;;12.07;3.97;;;7.50;99.90;;;;;;5021961;28;20044;-64
2023/02/03 13:55:43;;;;;;;13.50;3.50;;;7.50;99.90;;;;;;5018619;28;20072;-64
2023/02/03 13:58:36;;;;;;;15.35;4.20;;;7.60;99.90;;;;;;5011797;28;20446;-64
2023/02/03 14:01:37;;;;;;;12.95;5.28;;;7.60;99.90;;;;;;5021593;28;20053;-64
2023/02/03 14:04:23;;;;;;;22.73;5.50;;;7.60;99.90;;;;;;5035559;28;20121;-65
2023/02/03 14:07:37;;;;;;;19.63;6.03;;;7.60;99.90;;;;;;5017385;28;20037;-64
2023/02/03 14:10:24;;;;;;;15.40;4.55;;;7.70;99.90;;;;;;5012591;28;20480;-64
2023/02/03 14:13:20;;;;;;;15.43;5.78;;;7.70;99.90;;;;;;5024864;28;20641;-65
2023/02/03 14:16:23;;;;;;;17.77;5.00;;;7.80;99.90;;;;;;5024734;28;20481;-64
2023/02/03 14:19:12;;;;;;;15.60;4.60;;;7.90;99.90;;;;;;5018683;28;20029;-63
2023/02/03 14:22:01;;;;;;;18.40;6.55;;;8.00;99.90;;;;;;5015478;28;20048;-63
2023/02/03 14:24:48;;;;;;;16.23;5.68;;;8.10;99.90;;;;;;5011743;28;20029;-63
2023/02/03 14:27:34;;;;;;;20.35;6.20;;;8.20;99.90;;;;;;5019284;28;20434;-63
2023/02/03 14:30:20;;;;;;;21.65;5.70;;;8.20;99.90;;;;;;5023333;28;20045;-63
2023/02/03 14:33:05;;;;;;;18.63;5.05;;;8.30;99.90;;;;;;5022073;28;20392;-62
2023/02/03 14:35:51;;;;;;;20.60;5.40;;;8.40;99.90;;;;;;5023743;28;20030;-63
2023/02/03 14:38:37;;;;;;;17.75;5.88;;;8.40;99.90;;;;;;5016586;28;20026;-63
2023/02/03 14:41:38;;;;;;;18.95;5.40;;;8.50;99.90;;;;;;5013336;28;20460;-64
2023/02/03 14:44:44;;;;;;;18.25;5.80;;;8.50;99.90;;;;;;5014241;28;20022;-64
2023/02/03 14:47:33;;;;;;;;;;;8.60;99.90;;;;;;5018222;28;20413;-64
2023/02/03 14:50:39;;;;;;;23.58;6.68;;;8.60;99.90;;;;;;5015829;28;19909;-63
2023/02/03 14:53:56;;;;;;;17.90;5.78;;;8.60;99.90;;;;;;5019679;28;20041;-64
2023/02/03 15:00:04;;;;;;;24.45;6.60;;;8.70;99.90;;;;;;5020384;28;20037;-63